Time;durP1;ratioP1;P1;durP2;ratioP2;P2;SDS_P1;SDS_P2;PMS_P1;PMS_P2;Temp;Humidity;BMP_temperature;BMP_pressure;BME280_temperature;BME280_humidity;BME280_pressure;Samples;Min_cycle;Max_cycle;Signal;HPM_P1;HPM_P2
2023/07/05 00:00:12;;;;;;;2.60;2.40;;;28.70;58.30;;;;;;4971124;28;20454;-82
2023/07/05 00:02:40;;;;;;;2.13;1.90;;;28.70;58.30;;;;;;4972355;28;20527;-82
2023/07/05 00:05:09;;;;;;;2.33;2.23;;;28.70;58.40;;;;;;4971646;28;20473;-82
2023/07/05 00:07:37;;;;;;;2.83;2.63;;;28.70;58.40;;;;;;4973190;28;20501;-82
2023/07/05 00:10:06;;;;;;;4.07;3.77;;;28.70;58.50;;;;;;4972364;28;20457;-82
2023/07/05 00:12:34;;;;;;;3.00;2.70;;;28.60;58.60;;;;;;4972057;28;20961;-82
2023/07/05 00:15:05;;;;;;;2.20;2.00;;;28.60;58.60;;;;;;4972984;28;20466;-82
2023/07/05 00:17:34;;;;;;;2.60;2.40;;;28.60;58.70;;;;;;4971286;28;20490;-82
2023/07/05 00:20:04;;;;;;;2.57;2.37;;;28.60;58.80;;;;;;4972486;28;20457;-82
2023/07/05 00:22:32;;;;;;;2.67;2.47;;;28.60;58.80;;;;;;4967581;28;20512;-81
2023/07/05 00:25:03;;;;;;;2.30;2.10;;;28.60;58.80;;;;;;4973083;28;20508;-82
2023/07/05 00:27:31;;;;;;;3.30;2.70;;;28.60;58.90;;;;;;4972178;28;20462;-82
2023/07/05 00:30:00;;;;;;;5.03;4.07;;;28.60;58.90;;;;;;4955826;28;20474;-81
2023/07/05 00:32:29;;;;;;;2.73;2.30;;;28.60;59.10;;;;;;4958805;28;20497;-82
2023/07/05 00:34:57;;;;;;;2.87;2.47;;;28.60;59.20;;;;;;4972039;28;20464;-82
2023/07/05 00:37:25;;;;;;;2.70;2.10;;;28.60;59.10;;;;;;4966759;28;20513;-82
2023/07/05 00:39:54;;;;;;;3.30;2.80;;;28.60;59.20;;;;;;4970302;28;20502;-82
2023/07/05 00:42:22;;;;;;;2.40;2.20;;;28.60;59.20;;;;;;4972468;28;20808;-82
2023/07/05 00:45:35;;;;;;;2.60;2.40;;;28.60;59.40;;;;;;4971651;28;20841;-81
2023/07/05 00:48:05;;;;;;;2.63;2.43;;;28.60;59.30;;;;;;4964638;28;20872;-81
2023/07/05 00:50:38;;;;;;;2.63;2.27;;;28.50;59.30;;;;;;4968357;28;20543;-81
2023/07/05 00:53:09;;;;;;;2.77;2.33;;;28.50;59.30;;;;;;4971486;28;20517;-82
2023/07/05 00:55:40;;;;;;;2.50;2.27;;;28.50;59.30;;;;;;4972173;28;20461;-82
2023/07/05 00:58:09;;;;;;;2.50;2.30;;;28.50;59.30;;;;;;4966604;28;20456;-82
2023/07/05 01:00:37;;;;;;;3.47;2.37;;;28.50;59.30;;;;;;4970853;28;20463;-82
2023/07/05 01:03:11;;;;;;;3.07;2.70;;;28.50;59.30;;;;;;4972677;28;20508;-81
2023/07/05 01:05:39;;;;;;;2.83;2.63;;;28.50;59.30;;;;;;4945756;28;20494;-81
2023/07/05 01:08:07;;;;;;;2.40;2.20;;;28.50;59.30;;;;;;4969465;28;20505;-81
2023/07/05 01:10:36;;;;;;;2.57;2.37;;;28.50;59.40;;;;;;4965253;28;20473;-81
2023/07/05 01:13:09;;;;;;;2.00;1.90;;;28.50;59.40;;;;;;4968330;28;20833;-82
2023/07/05 01:15:46;;;;;;;2.50;2.30;;;28.50;59.40;;;;;;4966661;28;20497;-82
2023/07/05 01:18:25;;;;;;;2.60;2.40;;;28.50;59.40;;;;;;4970344;28;20475;-82
2023/07/05 01:21:02;;;;;;;4.57;2.90;;;28.40;59.50;;;;;;4955097;28;21018;-82
2023/07/05 01:23:59;;;;;;;3.20;3.00;;;28.40;59.40;;;;;;4972112;28;20513;-82
2023/07/05 01:27:06;;;;;;;2.40;2.30;;;28.40;59.40;;;;;;4950475;28;20871;-82
2023/07/05 01:30:13;;;;;;;3.20;2.73;;;28.40;59.40;;;;;;4969572;28;20468;-82
2023/07/05 01:32:47;;;;;;;2.70;2.50;;;28.40;59.50;;;;;;4957022;28;20475;-82
2023/07/05 01:35:20;;;;;;;2.40;2.20;;;28.40;59.50;;;;;;4970636;28;20470;-82
2023/07/05 01:37:59;;;;;;;2.83;2.57;;;28.40;59.50;;;;;;5092819;22;20584;-68
2023/07/05 01:40:52;;;;;;;2.70;2.50;;;28.40;59.50;;;;;;5036893;28;21041;-71
2023/07/05 01:43:22;;;;;;;2.83;2.53;;;28.40;59.50;;;;;;5053562;28;20816;-70
2023/07/05 01:46:03;;;;;;;3.97;2.63;;;28.40;59.50;;;;;;5034825;28;20467;-69
2023/07/05 01:48:40;;;;;;;4.00;2.80;;;28.30;59.60;;;;;;5054039;28;20457;-75
2023/07/05 01:51:16;;;;;;;3.00;2.80;;;28.30;59.50;;;;;;5058998;28;20532;-69
2023/07/05 01:53:58;;;;;;;3.00;2.40;;;28.30;59.60;;;;;;5056065;28;21006;-68
2023/07/05 01:56:31;;;;;;;2.80;2.50;;;28.30;59.60;;;;;;5044835;28;20480;-80
2023/07/05 01:59:03;;;;;;;2.60;2.40;;;28.30;59.60;;;;;;5034009;28;20968;-68
2023/07/05 02:01:35;;;;;;;2.70;2.50;;;28.30;59.60;;;;;;5036724;28;20457;-67
2023/07/05 02:04:06;;;;;;;2.93;2.63;;;28.30;59.60;;;;;;5049829;28;20464;-75
2023/07/05 02:06:36;;;;;;;2.20;2.03;;;28.30;59.60;;;;;;5033676;28;20816;-67
2023/07/05 02:09:05;;;;;;;2.40;2.20;;;28.30;59.60;;;;;;5061650;28;20461;-67
2023/07/05 02:11:34;;;;;;;2.67;2.47;;;28.30;59.60;;;;;;5063351;28;20469;-68
2023/07/05 02:14:02;;;;;;;2.43;2.10;;;28.30;59.60;;;;;;5053914;28;20517;-67
2023/07/05 02:16:30;;;;;;;3.20;2.20;;;28.30;59.60;;;;;;5033400;28;20903;-68
2023/07/05 02:18:59;;;;;;;2.50;2.40;;;28.30;59.60;;;;;;5043983;28;20491;-76
2023/07/05 02:21:27;;;;;;;2.60;2.10;;;28.30;59.70;;;;;;5033972;28;20467;-68
2023/07/05 02:23:55;;;;;;;1.93;1.83;;;28.30;59.70;;;;;;5052193;28;20522;-69
2023/07/05 02:26:25;;;;;;;2.67;2.20;;;28.30;59.60;;;;;;5058428;28;20464;-71
2023/07/05 02:28:53;;;;;;;4.30;2.27;;;28.30;59.60;;;;;;5054099;28;20457;-82
2023/07/05 02:31:21;;;;;;;2.13;1.93;;;28.30;59.60;;;;;;5058356;28;20448;-67
2023/07/05 02:33:49;;;;;;;2.73;2.43;;;28.30;59.60;;;;;;5042140;28;21086;-77
2023/07/05 02:36:18;;;;;;;2.37;2.17;;;28.20;59.60;;;;;;5057323;28;20483;-68
2023/07/05 02:38:47;;;;;;;4.33;2.70;;;28.30;59.60;;;;;;5059832;28;20489;-73
2023/07/05 02:41:15;;;;;;;2.93;2.67;;;28.20;59.70;;;;;;5057695;28;20845;-68
2023/07/05 02:43:44;;;;;;;2.33;2.10;;;28.20;59.70;;;;;;5055743;28;20537;-86
2023/07/05 02:46:14;;;;;;;2.80;2.20;;;28.20;59.60;;;;;;5033604;28;20987;-68
2023/07/05 02:48:42;;;;;;;2.50;2.33;;;28.20;59.70;;;;;;5039601;28;20990;-67
2023/07/05 02:51:12;;;;;;;2.53;2.33;;;28.20;59.70;;;;;;5023747;28;20523;-68
2023/07/05 02:53:40;;;;;;;2.37;2.17;;;28.20;59.80;;;;;;5041516;28;20952;-73
2023/07/05 02:56:08;;;;;;;2.33;2.23;;;28.20;59.80;;;;;;5040511;28;20455;-68
2023/07/05 02:58:36;;;;;;;2.20;2.10;;;28.20;59.80;;;;;;5039288;28;20456;-68
2023/07/05 03:01:07;;;;;;;3.33;2.43;;;28.20;59.80;;;;;;5039304;28;20469;-68
2023/07/05 03:03:36;;;;;;;3.80;2.50;;;28.20;59.80;;;;;;5037982;28;20464;-76
2023/07/05 03:06:04;;;;;;;2.40;2.20;;;28.20;59.90;;;;;;5025735;28;20483;-69
2023/07/05 03:08:33;;;;;;;2.40;2.20;;;28.20;59.80;;;;;;5032296;28;20517;-74
2023/07/05 03:11:01;;;;;;;2.50;2.37;;;28.20;59.90;;;;;;5048351;28;20459;-69
2023/07/05 03:13:32;;;;;;;3.93;2.40;;;28.20;59.90;;;;;;5042626;28;20460;-74
2023/07/05 03:16:01;;;;;;;2.30;2.10;;;28.20;60.00;;;;;;5046344;28;20483;-68
2023/07/05 03:18:31;;;;;;;2.40;2.20;;;28.20;59.90;;;;;;5019721;28;20471;-72
2023/07/05 03:20:59;;;;;;;2.90;2.10;;;28.20;59.90;;;;;;5050017;28;20461;-73
2023/07/05 03:23:28;;;;;;;2.70;2.50;;;28.20;59.90;;;;;;5030574;28;20838;-68
2023/07/05 03:25:57;;;;;;;3.83;2.30;;;28.20;59.90;;;;;;5036499;28;21096;-69
2023/07/05 03:28:28;;;;;;;2.20;2.00;;;28.20;59.90;;;;;;5024320;28;20460;-81
2023/07/05 03:30:58;;;;;;;2.80;2.60;;;28.20;60.10;;;;;;5029301;28;20467;-72
2023/07/05 03:33:27;;;;;;;2.40;2.20;;;28.20;60.10;;;;;;5022457;28;20512;-77
2023/07/05 03:35:58;;;;;;;3.10;2.57;;;28.20;60.10;;;;;;5039924;28;20468;-81
2023/07/05 03:38:28;;;;;;;2.83;2.60;;;28.20;60.40;;;;;;5043557;28;20566;-71
2023/07/05 03:40:58;;;;;;;2.97;2.73;;;28.20;60.20;;;;;;5034152;28;20981;-74
2023/07/05 03:43:27;;;;;;;2.97;2.40;;;28.10;60.40;;;;;;5042535;28;20519;-72
2023/07/05 03:45:55;;;;;;;3.63;2.60;;;28.10;60.30;;;;;;5036787;28;20454;-68
2023/07/05 03:48:24;;;;;;;2.10;2.00;;;28.10;60.20;;;;;;5021956;28;20461;-68
2023/07/05 03:50:57;;;;;;;2.17;2.07;;;28.10;60.30;;;;;;5037839;28;20592;-68
2023/07/05 03:53:26;;;;;;;3.07;2.87;;;28.10;60.50;;;;;;5037192;28;20461;-67
2023/07/05 03:55:54;;;;;;;2.40;2.20;;;28.10;60.50;;;;;;5046724;28;20530;-67
2023/07/05 03:58:22;;;;;;;2.40;2.10;;;28.10;60.70;;;;;;5034743;28;20531;-67
2023/07/05 04:00:51;;;;;;;2.47;2.00;;;28.10;60.70;;;;;;5037701;28;20465;-67
2023/07/05 04:03:19;;;;;;;2.30;2.10;;;28.10;60.70;;;;;;5037686;28;20814;-71
2023/07/05 04:05:47;;;;;;;2.70;2.50;;;28.10;60.70;;;;;;5044808;28;20461;-68
2023/07/05 04:08:17;;;;;;;2.10;2.00;;;28.00;60.70;;;;;;5040918;28;20515;-67
2023/07/05 04:10:48;;;;;;;2.60;2.40;;;28.00;60.70;;;;;;5044934;28;20882;-67
2023/07/05 04:13:16;;;;;;;2.40;2.20;;;28.00;60.50;;;;;;5043942;28;20453;-75
2023/07/05 04:15:45;;;;;;;3.40;2.40;;;28.00;60.70;;;;;;5043548;28;20470;-67
2023/07/05 04:18:13;;;;;;;2.60;2.27;;;28.00;60.50;;;;;;5044277;28;20476;-68
2023/07/05 04:20:41;;;;;;;2.50;2.30;;;28.00;60.70;;;;;;5035800;28;20497;-73
2023/07/05 04:23:09;;;;;;;1.93;1.77;;;28.00;60.50;;;;;;5040431;28;20856;-80
2023/07/05 04:25:39;;;;;;;2.23;2.13;;;28.00;60.70;;;;;;5055013;28;20456;-67
2023/07/05 04:28:07;;;;;;;1.77;1.67;;;27.90;60.50;;;;;;5046862;28;20468;-69
2023/07/05 04:30:35;;;;;;;2.03;1.93;;;27.90;60.50;;;;;;5026657;28;20592;-76
2023/07/05 04:33:03;;;;;;;2.63;2.43;;;27.90;60.50;;;;;;5037661;28;20488;-68
2023/07/05 04:35:32;;;;;;;2.03;1.87;;;27.90;60.50;;;;;;5041275;28;20806;-68
2023/07/05 04:38:00;;;;;;;2.60;2.10;;;27.90;60.70;;;;;;5042563;28;20543;-75
2023/07/05 04:40:28;;;;;;;2.03;1.80;;;27.90;60.50;;;;;;5036814;28;20597;-68
2023/07/05 04:42:58;;;;;;;2.70;2.20;;;27.90;60.50;;;;;;5026084;28;20464;-73
2023/07/05 04:45:26;;;;;;;2.20;2.00;;;27.90;60.50;;;;;;5049498;28;20524;-67
2023/07/05 04:47:54;;;;;;;1.90;1.80;;;27.90;60.70;;;;;;5019931;28;20508;-76
2023/07/05 04:50:22;;;;;;;2.43;1.73;;;27.90;60.70;;;;;;5038613;28;20476;-70
2023/07/05 04:52:51;;;;;;;2.20;2.00;;;27.90;60.70;;;;;;5038899;28;20456;-75
2023/07/05 04:55:19;;;;;;;2.80;2.33;;;27.90;60.70;;;;;;5039750;28;20470;-70
2023/07/05 04:57:47;;;;;;;3.30;2.00;;;27.90;60.70;;;;;;5039620;28;20478;-70
2023/07/05 05:00:18;;;;;;;2.27;2.07;;;27.90;60.70;;;;;;5036240;28;20549;-68
2023/07/05 05:02:46;;;;;;;2.53;2.23;;;27.90;60.80;;;;;;5034416;28;20459;-69
2023/07/05 05:05:14;;;;;;;2.30;2.10;;;27.90;60.70;;;;;;5039166;28;20549;-69
2023/07/05 05:07:43;;;;;;;2.20;1.93;;;27.90;60.70;;;;;;5040010;28;20459;-71
2023/07/05 05:10:11;;;;;;;2.40;2.20;;;27.90;60.80;;;;;;5027874;28;20896;-71
2023/07/05 05:12:39;;;;;;;2.90;1.83;;;27.90;60.80;;;;;;5039814;28;20500;-68
2023/07/05 05:15:08;;;;;;;2.63;1.70;;;27.90;60.90;;;;;;5044050;28;20481;-79
2023/07/05 05:17:38;;;;;;;2.30;1.53;;;27.90;61.00;;;;;;5040629;28;20474;-76
2023/07/05 05:20:07;;;;;;;4.00;1.93;;;27.90;61.10;;;;;;5039986;28;20555;-71
2023/07/05 05:22:35;;;;;;;1.90;1.80;;;27.90;61.00;;;;;;5039192;28;20456;-68
2023/07/05 05:25:04;;;;;;;5.00;2.20;;;27.90;61.00;;;;;;5043327;28;20907;-68
2023/07/05 05:27:32;;;;;;;2.00;1.80;;;27.90;61.00;;;;;;5037653;28;21257;-77
2023/07/05 05:30:00;;;;;;;2.33;1.90;;;27.90;61.00;;;;;;5035316;28;20475;-80
2023/07/05 05:32:29;;;;;;;2.00;1.80;;;27.90;61.00;;;;;;5035122;28;20461;-72
2023/07/05 05:34:58;;;;;;;3.17;2.40;;;27.90;61.40;;;;;;5039370;28;20463;-71
2023/07/05 05:37:26;;;;;;;2.13;2.00;;;27.90;61.40;;;;;;5038541;28;21067;-74
2023/07/05 05:39:55;;;;;;;2.57;1.93;;;27.90;61.30;;;;;;5039674;28;20980;-74
2023/07/05 05:42:23;;;;;;;1.83;1.70;;;27.90;61.50;;;;;;5039442;28;20461;-75
2023/07/05 05:44:51;;;;;;;1.80;1.57;;;27.90;61.40;;;;;;5039576;28;20470;-71
2023/07/05 05:47:19;;;;;;;2.43;2.03;;;27.90;61.40;;;;;;5028916;28;20471;-69
2023/07/05 05:49:48;;;;;;;1.90;1.60;;;27.90;61.20;;;;;;5040942;28;20496;-76
2023/07/05 05:52:17;;;;;;;1.60;1.47;;;28.00;61.60;;;;;;5033097;28;20500;-72
2023/07/05 05:54:45;;;;;;;1.43;1.30;;;28.00;61.50;;;;;;5036981;28;20464;-73
2023/07/05 05:57:13;;;;;;;2.30;1.40;;;28.00;61.50;;;;;;5033452;28;20989;-69
2023/07/05 05:59:42;;;;;;;1.80;1.60;;;28.00;61.60;;;;;;5038279;28;20481;-69
2023/07/05 06:02:11;;;;;;;2.70;1.80;;;28.00;61.50;;;;;;5038030;28;20459;-69
2023/07/05 06:04:39;;;;;;;1.60;1.50;;;28.00;61.60;;;;;;5029392;28;21026;-74
2023/07/05 06:07:07;;;;;;;2.13;1.77;;;28.00;61.60;;;;;;5030862;28;20494;-71
2023/07/05 06:09:39;;;;;;;2.13;1.97;;;28.00;61.60;;;;;;5045089;28;20499;-76
2023/07/05 06:12:08;;;;;;;5.43;2.07;;;28.00;61.50;;;;;;5034557;28;21263;-70
2023/07/05 06:14:36;;;;;;;2.57;2.20;;;28.00;61.70;;;;;;5010822;28;20914;-74
2023/07/05 06:17:05;;;;;;;2.10;1.90;;;28.00;62.20;;;;;;5036879;28;20589;-69
2023/07/05 06:19:33;;;;;;;2.27;1.83;;;28.00;62.70;;;;;;5029334;28;20469;-69
2023/07/05 06:22:01;;;;;;;2.43;2.17;;;27.90;62.80;;;;;;5040865;28;20481;-71
2023/07/05 06:24:31;;;;;;;1.60;1.50;;;28.00;63.00;;;;;;5042192;28;20555;-69
2023/07/05 06:27:02;;;;;;;2.97;1.80;;;28.00;63.00;;;;;;5039844;28;20813;-69
2023/07/05 06:29:30;;;;;;;3.00;2.20;;;28.00;63.20;;;;;;5044876;28;20483;-69
2023/07/05 06:31:58;;;;;;;1.73;1.63;;;28.00;63.30;;;;;;5038519;28;20493;-73
2023/07/05 06:34:26;;;;;;;2.47;1.60;;;28.00;63.40;;;;;;5048179;28;21194;-73
2023/07/05 06:36:54;;;;;;;1.90;1.70;;;28.00;63.30;;;;;;5058345;28;20499;-70
2023/07/05 06:39:23;;;;;;;1.57;1.47;;;28.00;63.30;;;;;;5031424;28;20473;-71
2023/07/05 06:41:51;;;;;;;2.10;1.90;;;28.00;63.20;;;;;;5046249;28;20465;-72
2023/07/05 06:44:20;;;;;;;4.43;1.87;;;28.00;63.20;;;;;;5042137;28;20462;-68
2023/07/05 06:46:49;;;;;;;8.60;3.20;;;28.00;63.30;;;;;;5055233;28;20450;-68
2023/07/05 06:49:18;;;;;;;18.87;6.47;;;28.00;63.30;;;;;;5049553;28;20959;-76
2023/07/05 06:51:46;;;;;;;24.23;8.60;;;28.00;63.30;;;;;;5048358;28;20464;-69
2023/07/05 06:54:14;;;;;;;19.80;7.70;;;28.00;63.40;;;;;;5038084;28;20461;-71
2023/07/05 06:56:43;;;;;;;14.63;4.97;;;28.10;63.50;;;;;;5048111;28;20468;-69
2023/07/05 06:59:11;;;;;;;14.33;4.23;;;28.10;63.50;;;;;;5044467;28;20871;-70
2023/07/05 07:01:42;;;;;;;15.40;3.80;;;28.10;63.60;;;;;;5043469;28;20472;-72
2023/07/05 07:04:10;;;;;;;9.80;3.50;;;28.10;63.60;;;;;;5050344;28;20856;-68
2023/07/05 07:06:39;;;;;;;10.50;4.77;;;28.10;63.60;;;;;;5045370;28;20498;-68
2023/07/05 07:09:07;;;;;;;4.40;2.80;;;28.10;63.60;;;;;;5049347;28;20520;-70
2023/07/05 07:11:35;;;;;;;9.30;2.93;;;28.10;63.70;;;;;;5043737;28;20465;-73
2023/07/05 07:14:03;;;;;;;6.93;3.00;;;28.10;63.90;;;;;;5038912;28;20461;-69
2023/07/05 07:16:32;;;;;;;7.33;2.73;;;28.10;63.90;;;;;;5039431;28;20630;-72
2023/07/05 07:19:02;;;;;;;4.20;2.50;;;28.10;63.90;;;;;;5040356;28;20482;-69
2023/07/05 07:21:31;;;;;;;5.00;2.40;;;28.10;64.00;;;;;;5039330;28;20466;-68
2023/07/05 07:23:59;;;;;;;3.40;2.13;;;28.10;64.00;;;;;;5021059;28;20453;-70
2023/07/05 07:26:27;;;;;;;3.13;2.27;;;28.10;64.00;;;;;;5048331;28;20472;-69
2023/07/05 07:28:57;;;;;;;3.43;2.37;;;28.20;64.10;;;;;;5044929;28;20461;-71
2023/07/05 07:31:27;;;;;;;2.33;2.10;;;28.20;63.90;;;;;;5036851;28;20514;-68
2023/07/05 07:33:56;;;;;;;2.40;2.20;;;28.20;64.00;;;;;;5049319;28;20458;-69
2023/07/05 07:36:28;;;;;;;3.00;2.30;;;28.20;63.90;;;;;;5022913;28;20894;-70
2023/07/05 07:38:57;;;;;;;2.00;1.90;;;28.20;63.80;;;;;;5044665;28;20523;-70
2023/07/05 07:41:28;;;;;;;2.77;2.53;;;28.20;63.70;;;;;;5034510;28;20465;-77
2023/07/05 07:43:59;;;;;;;2.53;2.33;;;28.20;63.80;;;;;;5045131;28;20462;-67
2023/07/05 07:46:29;;;;;;;3.20;3.00;;;28.20;63.70;;;;;;5041052;28;20472;-67
2023/07/05 07:48:59;;;;;;;1.90;1.80;;;28.20;63.70;;;;;;5041352;28;20465;-68
2023/07/05 07:51:31;;;;;;;4.20;2.83;;;28.30;63.60;;;;;;5045029;28;20464;-67
2023/07/05 07:54:04;;;;;;;2.73;2.20;;;28.30;63.60;;;;;;5040046;28;20485;-68
2023/07/05 07:56:33;;;;;;;2.30;2.20;;;28.30;63.50;;;;;;5047447;28;20462;-75
2023/07/05 07:59:04;;;;;;;5.07;2.60;;;28.30;63.40;;;;;;5032563;28;20487;-67
2023/07/05 08:01:35;;;;;;;2.60;2.40;;;28.30;63.40;;;;;;5048310;28;20467;-69
2023/07/05 08:04:05;;;;;;;3.70;2.13;;;28.30;63.40;;;;;;5036850;28;20942;-73
2023/07/05 08:06:37;;;;;;;11.57;4.10;;;28.30;63.30;;;;;;5050212;28;20462;-71
2023/07/05 08:09:06;;;;;;;13.60;3.07;;;28.30;63.20;;;;;;5045489;28;20493;-67
2023/07/05 08:11:35;;;;;;;4.43;2.90;;;28.30;63.20;;;;;;5039089;28;20521;-68
2023/07/05 08:14:03;;;;;;;3.90;2.43;;;28.30;63.20;;;;;;5042032;28;20964;-69
2023/07/05 08:16:32;;;;;;;6.33;3.30;;;28.30;63.30;;;;;;5040817;28;20967;-73
2023/07/05 08:19:00;;;;;;;6.27;3.00;;;28.30;63.30;;;;;;5036164;28;20466;-67
2023/07/05 08:21:29;;;;;;;6.50;3.37;;;28.30;63.20;;;;;;5038751;28;20473;-68
2023/07/05 08:23:59;;;;;;;4.90;2.57;;;28.40;63.20;;;;;;5047313;28;20543;-70
2023/07/05 08:26:43;;;;;;;3.87;2.93;;;28.40;63.10;;;;;;5040577;28;20454;-68
2023/07/05 08:29:11;;;;;;;3.80;2.47;;;28.40;63.30;;;;;;5037221;28;20459;-67
2023/07/05 08:31:41;;;;;;;4.93;2.27;;;28.40;63.00;;;;;;5046371;28;20540;-70
2023/07/05 08:34:10;;;;;;;2.97;2.30;;;28.40;62.90;;;;;;5035635;28;20511;-67
2023/07/05 08:36:41;;;;;;;2.00;1.90;;;28.40;62.80;;;;;;5045692;28;20552;-68
2023/07/05 08:39:12;;;;;;;2.70;2.40;;;28.40;62.90;;;;;;5042813;28;20457;-73
2023/07/05 08:42:25;;;;;;;2.60;2.40;;;28.40;62.70;;;;;;5044494;28;20473;-68
2023/07/05 08:45:01;;;;;;;2.90;2.70;;;28.40;62.70;;;;;;4942744;28;20473;-71
2023/07/05 08:47:33;;;;;;;3.20;2.57;;;28.40;62.60;;;;;;5041316;28;20471;-68
2023/07/05 08:50:17;;;;;;;2.37;2.03;;;28.40;62.70;;;;;;5045026;28;20485;-69
2023/07/05 08:53:05;;;;;;;2.33;2.07;;;28.40;62.50;;;;;;5046824;28;20457;-70
2023/07/05 08:55:47;;;;;;;5.53;2.10;;;28.40;62.40;;;;;;5050132;28;20456;-78
2023/07/05 08:58:21;;;;;;;3.07;2.17;;;28.40;62.30;;;;;;5048359;28;20536;-69
2023/07/05 09:00:56;;;;;;;2.10;1.97;;;28.40;62.30;;;;;;5049889;28;20473;-69
2023/07/05 09:03:28;;;;;;;3.00;2.20;;;28.40;62.20;;;;;;5049345;28;20965;-70
2023/07/05 09:06:10;;;;;;;3.73;2.20;;;28.40;62.10;;;;;;5041465;28;20508;-75
2023/07/05 09:08:51;;;;;;;1.80;1.70;;;28.40;62.00;;;;;;5035608;28;20462;-69
2023/07/05 09:11:29;;;;;;;3.33;1.90;;;28.50;61.90;;;;;;5033330;28;20882;-69
2023/07/05 09:14:08;;;;;;;2.40;2.20;;;28.50;61.90;;;;;;5039793;28;20465;-69
2023/07/05 09:16:44;;;;;;;2.10;2.00;;;28.50;61.80;;;;;;5056794;28;20471;-74
2023/07/05 09:19:20;;;;;;;1.90;1.80;;;28.50;61.70;;;;;;5043098;28;21011;-69
2023/07/05 09:21:53;;;;;;;2.40;2.20;;;28.50;61.60;;;;;;5046398;28;20552;-69
2023/07/05 09:24:25;;;;;;;2.00;1.90;;;28.50;61.50;;;;;;5036049;28;20505;-69
2023/07/05 09:26:58;;;;;;;2.17;1.60;;;28.50;61.30;;;;;;5049820;28;20969;-71
2023/07/05 09:29:32;;;;;;;4.23;1.50;;;28.50;61.20;;;;;;5033949;28;20950;-69
2023/07/05 09:32:05;;;;;;;1.90;1.80;;;28.50;61.20;;;;;;5040402;28;20455;-68
2023/07/05 09:34:38;;;;;;;1.90;1.80;;;28.50;61.20;;;;;;5042650;28;20476;-67
2023/07/05 09:37:17;;;;;;;1.70;1.47;;;28.50;61.20;;;;;;5050672;28;20484;-73
2023/07/05 09:40:06;;;;;;;1.63;1.53;;;28.50;61.20;;;;;;5036291;28;20462;-72
2023/07/05 09:42:39;;;;;;;2.10;1.50;;;28.50;61.20;;;;;;5033425;28;20453;-70
2023/07/05 09:45:12;;;;;;;2.63;1.70;;;28.50;61.20;;;;;;5040427;28;20473;-68
2023/07/05 09:47:41;;;;;;;1.60;1.50;;;28.50;61.10;;;;;;5034216;28;20465;-68
2023/07/05 09:50:16;;;;;;;2.23;1.53;;;28.50;61.20;;;;;;5034087;28;20818;-68
2023/07/05 09:52:47;;;;;;;2.90;1.67;;;28.50;61.40;;;;;;5037266;28;20485;-72
2023/07/05 09:55:17;;;;;;;1.63;1.50;;;28.50;61.30;;;;;;5040242;28;20470;-69
2023/07/05 09:57:50;;;;;;;1.53;1.43;;;28.50;61.20;;;;;;5040975;28;21052;-73
2023/07/05 10:00:24;;;;;;;1.60;1.50;;;28.50;61.10;;;;;;5041400;28;20554;-71
2023/07/05 10:02:54;;;;;;;1.07;1.07;;;28.50;61.20;;;;;;5046121;28;20468;-72
2023/07/05 10:05:27;;;;;;;1.93;1.50;;;28.50;61.10;;;;;;5046734;28;20490;-70
2023/07/05 10:07:57;;;;;;;1.17;1.00;;;28.50;61.10;;;;;;5052668;28;20468;-69
2023/07/05 10:10:28;;;;;;;1.10;1.10;;;28.40;61.30;;;;;;5043205;28;20486;-70
2023/07/05 10:13:04;;;;;;;1.20;1.10;;;28.40;61.00;;;;;;5052793;28;20493;-76
2023/07/05 10:15:32;;;;;;;0.90;0.90;;;28.40;60.80;;;;;;5052869;28;20473;-79
2023/07/05 10:18:02;;;;;;;1.70;1.20;;;28.30;60.80;;;;;;5056126;28;20450;-69
2023/07/05 10:20:37;;;;;;;2.63;1.50;;;28.30;60.80;;;;;;5050519;28;20492;-69
2023/07/05 10:23:14;;;;;;;5.30;1.50;;;28.30;60.90;;;;;;5042899;28;20451;-69
2023/07/05 10:25:43;;;;;;;2.30;1.70;;;28.30;60.90;;;;;;5054000;28;20461;-69
2023/07/05 10:28:26;;;;;;;3.40;1.60;;;28.30;61.00;;;;;;5051202;28;20507;-69
2023/07/05 10:30:56;;;;;;;1.60;1.30;;;28.30;61.10;;;;;;5044720;28;20513;-72
2023/07/05 10:33:27;;;;;;;2.63;1.70;;;28.30;61.10;;;;;;5040753;28;20466;-68
2023/07/05 10:36:03;;;;;;;2.00;1.60;;;28.30;61.00;;;;;;5047675;28;20529;-68
2023/07/05 10:38:33;;;;;;;5.00;2.90;;;28.30;61.10;;;;;;5044877;28;20491;-71
2023/07/05 10:41:20;;;;;;;5.00;2.93;;;28.30;61.10;;;;;;5046254;28;20528;-69
2023/07/05 10:43:53;;;;;;;3.77;2.03;;;28.30;61.20;;;;;;5039220;28;20551;-70
2023/07/05 10:46:25;;;;;;;4.83;2.93;;;28.30;61.20;;;;;;5047344;28;20519;-68
2023/07/05 10:48:54;;;;;;;3.70;2.23;;;28.40;61.20;;;;;;5048364;28;20461;-76
2023/07/05 10:51:24;;;;;;;4.47;2.40;;;28.40;61.30;;;;;;5045625;28;20460;-69
2023/07/05 10:53:58;;;;;;;2.17;1.97;;;28.40;61.20;;;;;;5047563;28;20472;-68
2023/07/05 10:56:32;;;;;;;4.30;2.10;;;28.50;61.40;;;;;;5037538;28;20469;-69
2023/07/05 10:59:13;;;;;;;2.90;2.00;;;28.50;61.20;;;;;;5038767;28;20458;-68
2023/07/05 11:01:49;;;;;;;4.37;2.03;;;28.50;61.50;;;;;;5044726;28;20659;-69
2023/07/05 11:04:21;;;;;;;3.17;1.47;;;28.50;61.40;;;;;;5027655;28;20805;-69
2023/07/05 11:06:53;;;;;;;3.80;1.40;;;28.50;61.40;;;;;;5044772;28;20463;-69
2023/07/05 11:09:21;;;;;;;1.83;1.73;;;28.50;61.40;;;;;;5042836;28;20459;-71
2023/07/05 11:11:55;;;;;;;2.53;2.33;;;28.50;61.40;;;;;;5039748;28;21009;-70
2023/07/05 11:14:28;;;;;;;1.97;1.60;;;28.50;61.30;;;;;;5038696;28;20449;-68
2023/07/05 11:16:59;;;;;;;2.20;1.30;;;28.50;61.20;;;;;;5041773;28;20475;-67
2023/07/05 11:19:29;;;;;;;2.30;1.80;;;28.50;61.00;;;;;;5046687;28;20459;-66
2023/07/05 11:22:00;;;;;;;2.03;1.03;;;28.50;60.80;;;;;;5037169;28;21003;-67
2023/07/05 11:24:47;;;;;;;3.07;1.77;;;28.50;60.50;;;;;;5036311;28;20464;-65
2023/07/05 11:27:54;;;;;;;1.73;1.63;;;28.50;60.70;;;;;;5039485;28;20479;-66
2023/07/05 11:30:47;;;;;;;1.73;1.47;;;28.50;60.80;;;;;;5039666;28;20469;-66
2023/07/05 11:33:20;;;;;;;1.13;1.07;;;28.50;61.00;;;;;;5020265;28;20461;-65
2023/07/05 11:35:50;;;;;;;1.77;1.20;;;28.50;61.00;;;;;;5040237;28;20985;-67
2023/07/05 11:39:07;;;;;;;2.33;1.60;;;28.50;61.10;;;;;;5047921;28;20493;-65
2023/07/05 11:41:40;;;;;;;1.47;1.37;;;28.50;61.00;;;;;;5051621;28;20816;-74
2023/07/05 11:44:26;;;;;;;1.63;1.43;;;28.50;60.80;;;;;;5037249;28;20458;-67
2023/07/05 11:46:56;;;;;;;1.43;1.33;;;28.50;60.70;;;;;;5047275;28;21304;-69
2023/07/05 11:49:39;;;;;;;1.50;1.40;;;28.50;60.40;;;;;;5046439;28;20459;-75
2023/07/05 11:52:22;;;;;;;2.03;1.30;;;28.50;60.80;;;;;;5038654;28;20471;-67
2023/07/05 11:55:03;;;;;;;1.50;1.40;;;28.50;61.00;;;;;;5035848;28;20465;-65
2023/07/05 11:57:37;;;;;;;1.10;1.00;;;28.50;60.50;;;;;;5039664;28;20806;-65
2023/07/05 12:00:17;;;;;;;1.37;1.27;;;28.60;60.50;;;;;;5037826;28;20472;-68
2023/07/05 12:02:58;;;;;;;1.47;1.20;;;28.60;60.40;;;;;;5047012;28;20476;-66
2023/07/05 12:05:29;;;;;;;1.03;1.00;;;28.60;60.00;;;;;;5046675;28;20453;-66
2023/07/05 12:08:00;;;;;;;1.50;1.20;;;28.60;59.90;;;;;;5047157;28;20458;-65
2023/07/05 12:10:32;;;;;;;1.60;1.30;;;28.60;59.80;;;;;;5042791;28;20524;-65
2023/07/05 12:13:01;;;;;;;260.43;144.63;;;28.70;59.70;;;;;;5043101;28;20957;-69
2023/07/05 12:15:29;;;;;;;36.07;21.93;;;28.70;59.40;;;;;;5041824;28;20540;-64
2023/07/05 12:17:59;;;;;;;18.83;11.20;;;28.80;59.40;;;;;;5041640;28;21774;-68
2023/07/05 12:20:40;;;;;;;348.77;197.93;;;28.90;59.00;;;;;;5022261;28;20875;-68
2023/07/05 12:23:14;;;;;;;116.93;63.70;;;29.10;58.90;;;;;;5029832;28;20818;-67
2023/07/05 12:25:46;;;;;;;78.90;43.40;;;29.20;58.90;;;;;;5041297;28;21036;-66
2023/07/05 12:28:16;;;;;;;59.63;37.70;;;29.40;58.90;;;;;;5035752;28;20487;-73
2023/07/05 12:30:45;;;;;;;53.87;32.00;;;29.60;58.90;;;;;;5049602;28;20466;-66
2023/07/05 12:33:26;;;;;;;48.17;28.77;;;29.80;58.70;;;;;;5042960;28;20552;-66
2023/07/05 12:36:06;;;;;;;46.07;25.93;;;29.90;58.40;;;;;;5049935;28;21273;-66
2023/07/05 12:38:35;;;;;;;40.87;23.60;;;30.00;58.30;;;;;;5050890;28;20981;-68
2023/07/05 12:41:03;;;;;;;37.10;20.70;;;30.00;57.80;;;;;;5054671;28;20464;-67
2023/07/05 12:43:32;;;;;;;27.87;17.70;;;30.10;57.70;;;;;;5049643;28;20521;-67
2023/07/05 12:46:08;;;;;;;27.80;16.87;;;30.10;57.80;;;;;;5051880;28;20461;-66
2023/07/05 12:48:38;;;;;;;25.53;15.13;;;30.10;57.90;;;;;;5043432;28;20514;-69
2023/07/05 12:51:14;;;;;;;22.23;14.33;;;30.10;57.80;;;;;;5045438;28;20518;-73
2023/07/05 12:53:45;;;;;;;22.77;12.50;;;30.10;57.70;;;;;;5039825;28;20473;-66
2023/07/05 12:56:16;;;;;;;19.80;12.40;;;30.10;57.60;;;;;;5039985;28;20468;-66
2023/07/05 12:58:51;;;;;;;15.00;9.97;;;30.10;57.60;;;;;;5033500;28;20480;-66
2023/07/05 13:01:24;;;;;;;15.50;9.70;;;30.10;57.40;;;;;;5047022;28;20470;-71
2023/07/05 13:03:55;;;;;;;17.37;10.00;;;30.10;57.40;;;;;;5042209;28;20474;-66
2023/07/05 13:06:24;;;;;;;12.77;8.30;;;30.10;57.10;;;;;;5039284;28;20557;-66
2023/07/05 13:08:55;;;;;;;14.77;7.57;;;30.00;57.20;;;;;;5043600;28;20467;-67